Boston, Massachusetts
Current Conditions -  °F | °C
As of 9:54 PM on Friday 19 Dec 2014 (Local Time) from KBOS Reporting Station
Clear Clear  
Wind Chill: 23°   Ceiling: Unl
Heat Index: 30°   Visibility: 10mi
Dew Point: 20°   Wind: 7mph
Humidity: 66%   Direction: 310°NW
Pressure: 30.13"   Gusts: NA
Location:  42.36°N, 71.06°W
Report Text: KBOS 200254Z 31006KT 10SM CLR M01/M07 A3013 RMK AO2 SLP202 T10111067 53020
Loading
Personal Weather Stations






























Interactive Weather Map New forecast layout! Learn more

10-Day Weather Forecast

Advertisements
Track Severe Weather on mobile